createdAt,value
2022-11-26T00:00:19.180Z,1.80
2022-11-26T00:02:46.255Z,1.42
2022-11-26T00:05:16.669Z,1.40
2022-11-26T00:07:45.078Z,1.43
2022-11-26T00:10:23.455Z,1.67
2022-11-26T00:12:50.199Z,1.10
2022-11-26T00:15:34.946Z,1.43
2022-11-26T00:18:01.818Z,1.30
2022-11-26T00:20:30.545Z,2.03
2022-11-26T00:22:58.674Z,1.40
2022-11-26T00:25:26.588Z,1.50
2022-11-26T00:27:54.400Z,1.40
2022-11-26T00:30:25.764Z,1.10
2022-11-26T00:32:53.154Z,1.05
2022-11-26T00:35:20.075Z,1.20
2022-11-26T00:37:51.941Z,1.27
2022-11-26T00:40:27.054Z,0.98
2022-11-26T00:42:58.663Z,0.85
2022-11-26T00:45:29.044Z,1.10
2022-11-26T00:47:57.513Z,1.48
2022-11-26T00:50:25.359Z,1.52
2022-11-26T00:52:53.549Z,1.77
2022-11-26T00:55:26.153Z,1.00
2022-11-26T00:57:53.025Z,1.00
2022-11-26T01:00:24.887Z,1.40
2022-11-26T01:02:51.815Z,1.43
2022-11-26T01:05:18.937Z,1.10
2022-11-26T01:07:45.771Z,1.30
2022-11-26T01:10:23.393Z,1.43
2022-11-26T01:12:50.359Z,1.73
2022-11-26T01:15:18.139Z,1.10
2022-11-26T01:17:44.972Z,1.52
2022-11-26T01:20:25.192Z,1.43
2022-11-26T01:22:52.565Z,1.50
2022-11-26T01:25:19.568Z,1.07
2022-11-26T01:27:46.268Z,1.07
2022-11-26T01:30:34.610Z,1.13
2022-11-26T01:33:01.411Z,1.30
2022-11-26T01:35:28.921Z,1.20
2022-11-26T01:37:55.820Z,1.30
2022-11-26T01:40:25.274Z,1.40
2022-11-26T01:42:53.923Z,1.77
2022-11-26T01:45:22.569Z,1.03
2022-11-26T01:47:49.598Z,1.33
2022-11-26T01:50:31.326Z,1.57
2022-11-26T01:53:01.813Z,1.15
2022-11-26T01:55:53.894Z,2.10
2022-11-26T01:58:23.467Z,1.10
2022-11-26T02:00:50.307Z,1.60
2022-11-26T02:03:17.929Z,1.00
2022-11-26T02:05:49.270Z,1.00
2022-11-26T02:08:16.153Z,1.03
2022-11-26T02:10:42.897Z,1.40
2022-11-26T02:13:09.660Z,1.02
2022-11-26T02:15:44.896Z,1.80
2022-11-26T02:18:11.647Z,0.98
2022-11-26T02:21:03.424Z,0.83
2022-11-26T02:24:09.080Z,1.00
2022-11-26T02:26:48.410Z,1.47
2022-11-26T02:29:21.009Z,0.90
2022-11-26T02:32:03.814Z,1.13
2022-11-26T02:34:39.900Z,1.00
2022-11-26T02:37:20.457Z,0.93
2022-11-26T02:39:47.347Z,0.80
2022-11-26T02:42:31.189Z,0.67
2022-11-26T02:45:01.194Z,1.10
2022-11-26T02:47:28.103Z,1.10
2022-11-26T02:49:56.042Z,1.00
2022-11-26T02:52:22.935Z,2.20
2022-11-26T02:54:49.638Z,1.13
2022-11-26T02:57:16.413Z,0.90
2022-11-26T02:59:43.091Z,1.00
2022-11-26T03:02:26.092Z,1.63
2022-11-26T03:04:54.418Z,1.20
2022-11-26T03:07:21.159Z,1.20
2022-11-26T03:09:59.056Z,1.17
2022-11-26T03:12:25.943Z,1.00
2022-11-26T03:14:52.727Z,1.10
2022-11-26T03:17:19.485Z,1.23
2022-11-26T03:19:46.503Z,1.20
2022-11-26T03:22:13.667Z,1.40
2022-11-26T03:24:40.672Z,1.17
2022-11-26T03:27:07.597Z,1.03
2022-11-26T03:29:34.616Z,1.20
2022-11-26T03:32:01.545Z,1.40
2022-11-26T03:34:28.264Z,1.23
2022-11-26T03:36:55.080Z,1.73
2022-11-26T03:39:21.901Z,1.40
2022-11-26T03:41:48.614Z,1.30
2022-11-26T03:44:15.407Z,1.25
2022-11-26T03:46:42.260Z,1.00
2022-11-26T03:49:08.979Z,1.60
2022-11-26T03:51:35.919Z,1.70
2022-11-26T03:54:02.670Z,1.33
2022-11-26T03:56:29.434Z,1.40
2022-11-26T03:58:56.149Z,2.27
2022-11-26T04:01:23.159Z,1.37
2022-11-26T04:03:49.931Z,1.37
2022-11-26T04:06:16.704Z,1.60
2022-11-26T04:08:43.492Z,2.30
2022-11-26T04:11:10.255Z,1.40
2022-11-26T04:13:37.080Z,1.77
2022-11-26T04:16:03.845Z,1.60
2022-11-26T04:18:30.578Z,1.57
2022-11-26T04:20:57.281Z,1.90
2022-11-26T04:23:24.074Z,1.73
2022-11-26T04:25:50.789Z,1.70
2022-11-26T04:28:17.540Z,2.20
2022-11-26T04:30:44.291Z,1.50
2022-11-26T04:33:11.086Z,1.60
2022-11-26T04:35:38.686Z,1.83
2022-11-26T04:38:05.436Z,1.57
2022-11-26T04:40:32.138Z,1.60
2022-11-26T04:42:58.950Z,1.30
2022-11-26T04:45:25.787Z,1.55
2022-11-26T04:47:52.602Z,1.15
2022-11-26T04:50:19.475Z,1.80
2022-11-26T04:52:48.542Z,1.87
2022-11-26T04:55:16.170Z,1.80
2022-11-26T04:57:42.999Z,1.57
2022-11-26T05:00:10.465Z,1.90
2022-11-26T05:02:37.215Z,2.17
2022-11-26T05:05:04.037Z,1.70
2022-11-26T05:07:30.841Z,1.88
2022-11-26T05:09:57.648Z,1.57
2022-11-26T05:12:24.406Z,1.77
2022-11-26T05:14:51.143Z,1.63
2022-11-26T05:17:17.918Z,1.40
2022-11-26T05:19:44.631Z,1.90
2022-11-26T05:22:11.382Z,2.27
2022-11-26T05:24:38.347Z,1.40
2022-11-26T05:27:05.277Z,1.87
2022-11-26T05:29:32.977Z,1.60
2022-11-26T05:31:59.826Z,1.60
2022-11-26T05:34:26.660Z,2.33
2022-11-26T05:36:53.373Z,1.60
2022-11-26T05:39:20.171Z,1.90
2022-11-26T05:41:46.928Z,1.92
2022-11-26T05:44:13.640Z,1.80
2022-11-26T05:46:41.233Z,1.80
2022-11-26T05:49:08.026Z,1.67
2022-11-26T05:51:34.761Z,2.33
2022-11-26T05:54:01.533Z,1.63
2022-11-26T05:56:28.260Z,2.15
2022-11-26T05:58:54.978Z,1.70
2022-11-26T06:01:21.812Z,1.80
2022-11-26T06:03:48.656Z,1.63
2022-11-26T06:06:15.532Z,2.27
2022-11-26T06:08:42.255Z,2.05
2022-11-26T06:11:12.099Z,2.53
2022-11-26T06:13:38.968Z,2.43
2022-11-26T06:16:06.059Z,2.75
2022-11-26T06:18:32.822Z,2.40
2022-11-26T06:21:03.419Z,2.90
2022-11-26T06:23:30.216Z,2.15
2022-11-26T06:25:56.997Z,3.00
2022-11-26T06:28:23.749Z,2.78
2022-11-26T06:30:50.590Z,2.70
2022-11-26T06:33:17.427Z,2.50
2022-11-26T06:35:44.212Z,3.08
2022-11-26T06:38:11.673Z,2.95
2022-11-26T06:40:38.492Z,2.30
2022-11-26T06:43:05.185Z,2.42
2022-11-26T06:45:31.944Z,1.90
2022-11-26T06:47:58.725Z,2.17
2022-11-26T06:50:25.578Z,2.75
2022-11-26T06:52:53.074Z,3.88
2022-11-26T06:55:19.960Z,2.45
2022-11-26T06:57:50.784Z,3.72
2022-11-26T07:00:17.741Z,3.20
2022-11-26T07:02:44.591Z,3.33
2022-11-26T07:05:11.332Z,2.67
2022-11-26T07:07:38.930Z,2.40
2022-11-26T07:10:06.443Z,2.70
2022-11-26T07:12:33.246Z,2.40
2022-11-26T07:15:00.062Z,2.20
2022-11-26T07:17:28.265Z,2.00
2022-11-26T07:19:55.014Z,1.77
2022-11-26T07:22:21.787Z,2.00
2022-11-26T07:24:48.486Z,2.10
2022-11-26T07:27:15.173Z,3.13
2022-11-26T07:29:41.976Z,2.75
2022-11-26T07:32:08.944Z,2.93
2022-11-26T07:34:35.836Z,2.55
2022-11-26T07:37:02.760Z,2.25
2022-11-26T07:39:30.120Z,2.17
2022-11-26T07:41:56.892Z,2.20
2022-11-26T07:44:23.618Z,1.80
2022-11-26T07:46:50.437Z,2.20
2022-11-26T07:49:17.210Z,2.67
2022-11-26T07:51:44.020Z,2.33
2022-11-26T07:54:10.772Z,2.33
2022-11-26T07:56:37.500Z,2.50
2022-11-26T07:59:04.255Z,2.57
2022-11-26T08:01:31.173Z,2.00
2022-11-26T08:03:59.037Z,2.20
2022-11-26T08:06:29.741Z,2.10
2022-11-26T08:08:56.471Z,1.80
2022-11-26T08:11:24.952Z,1.97
2022-11-26T08:13:56.587Z,1.53
2022-11-26T08:16:23.400Z,2.20
2022-11-26T08:18:54.025Z,1.90
2022-11-26T08:21:21.219Z,1.97
2022-11-26T08:23:47.946Z,2.10
2022-11-26T08:26:25.507Z,2.00
2022-11-26T08:28:54.566Z,2.65
2022-11-26T08:31:22.331Z,2.40
2022-11-26T08:33:49.185Z,2.27
2022-11-26T08:36:16.071Z,2.53
2022-11-26T08:38:42.803Z,2.30
2022-11-26T08:41:11.951Z,2.47
2022-11-26T08:44:05.761Z,2.47
2022-11-26T08:46:26.032Z,2.90
2022-11-26T08:48:55.649Z,4.50
2022-11-26T08:51:22.350Z,5.20
2022-11-26T08:53:49.202Z,6.50
2022-11-26T08:56:15.983Z,3.60
2022-11-26T08:58:45.018Z,6.07
2022-11-26T09:01:22.596Z,3.90
2022-11-26T09:03:50.101Z,3.73
2022-11-26T09:06:17.126Z,3.73
2022-11-26T09:09:02.355Z,5.67
2022-11-26T09:11:29.168Z,3.27
2022-11-26T09:13:57.251Z,3.67
2022-11-26T09:16:24.159Z,3.57
2022-11-26T09:18:51.181Z,3.63
2022-11-26T09:21:18.368Z,4.70
2022-11-26T09:23:45.139Z,5.50
2022-11-26T09:26:11.879Z,4.63
2022-11-26T09:28:39.587Z,4.80
2022-11-26T09:31:06.544Z,3.93
2022-11-26T09:33:33.289Z,3.80
2022-11-26T09:36:14.449Z,4.00
2022-11-26T09:38:41.238Z,4.13
2022-11-26T09:41:20.001Z,3.60
2022-11-26T09:43:58.747Z,3.20
2022-11-26T09:46:40.726Z,3.30
2022-11-26T09:49:15.757Z,3.23
2022-11-26T09:51:47.442Z,3.47
2022-11-26T09:54:16.889Z,5.50
2022-11-26T09:56:43.616Z,3.20
2022-11-26T09:59:13.386Z,2.90
2022-11-26T10:01:40.633Z,2.90
2022-11-26T10:04:08.000Z,3.60
2022-11-26T10:06:37.486Z,2.87
2022-11-26T10:09:06.983Z,3.37
2022-11-26T10:11:55.158Z,3.53
2022-11-26T10:14:43.674Z,3.63
2022-11-26T10:17:48.017Z,3.97
2022-11-26T10:20:44.856Z,3.90
2022-11-26T10:23:17.632Z,4.30
2022-11-26T10:25:49.811Z,4.27
2022-11-26T10:28:25.151Z,4.17
2022-11-26T10:31:03.115Z,3.43
2022-11-26T10:33:33.203Z,4.07
2022-11-26T10:35:59.883Z,4.20
2022-11-26T10:38:26.821Z,3.17
2022-11-26T10:40:53.607Z,3.60
2022-11-26T10:43:22.279Z,3.13
2022-11-26T10:45:52.987Z,2.63
2022-11-26T10:48:25.526Z,3.67
2022-11-26T10:50:58.570Z,3.30
2022-11-26T10:53:25.541Z,2.83
2022-11-26T10:55:54.014Z,3.80
2022-11-26T10:58:25.313Z,4.37
2022-11-26T11:00:52.037Z,3.47
2022-11-26T11:04:06.000Z,4.70
2022-11-26T11:06:20.712Z,4.80
2022-11-26T11:08:48.528Z,4.33
2022-11-26T11:11:23.598Z,4.50
2022-11-26T11:13:50.437Z,3.80
2022-11-26T11:16:27.680Z,3.60
2022-11-26T11:19:00.053Z,3.43
2022-11-26T11:21:34.479Z,3.47
2022-11-26T11:24:36.810Z,2.50
2022-11-26T11:27:03.496Z,2.47
2022-11-26T11:29:33.255Z,2.63
2022-11-26T11:32:02.202Z,2.50
2022-11-26T11:34:38.791Z,3.33
2022-11-26T11:37:14.902Z,3.40
2022-11-26T11:39:42.351Z,3.93
2022-11-26T11:42:28.277Z,3.10
2022-11-26T11:44:55.081Z,5.07
2022-11-26T11:47:40.286Z,2.80
2022-11-26T11:50:15.570Z,2.97
2022-11-26T11:53:12.546Z,4.20
2022-11-26T11:56:09.155Z,3.23
2022-11-26T11:59:04.932Z,2.60
2022-11-26T12:01:46.481Z,1.67
2022-11-26T12:04:40.629Z,2.20
2022-11-26T12:07:31.953Z,3.03
2022-11-26T12:10:10.045Z,1.73
2022-11-26T12:12:57.261Z,2.53
2022-11-26T12:15:29.652Z,1.70
2022-11-26T12:18:06.054Z,1.60
2022-11-26T12:20:39.111Z,1.80
2022-11-26T12:23:24.805Z,2.17
2022-11-26T12:26:13.153Z,2.20
2022-11-26T12:29:03.005Z,1.97
2022-11-26T12:31:39.337Z,2.50
2022-11-26T12:34:28.380Z,1.60
2022-11-26T12:36:59.581Z,3.20
2022-11-26T12:39:49.212Z,1.67
2022-11-26T12:42:28.278Z,1.57
2022-11-26T12:44:56.167Z,2.50
2022-11-26T12:47:30.871Z,1.80
2022-11-26T12:50:00.469Z,1.70
2022-11-26T12:52:34.502Z,1.30
2022-11-26T12:55:22.204Z,1.57
2022-11-26T12:57:59.379Z,2.80
2022-11-26T13:00:35.717Z,2.70
2022-11-26T13:03:04.976Z,2.20
2022-11-26T13:06:02.231Z,1.53
2022-11-26T13:08:56.744Z,1.70
2022-11-26T13:12:13.151Z,1.70
2022-11-26T13:15:00.245Z,2.77
2022-11-26T13:17:45.922Z,2.20
2022-11-26T13:20:34.022Z,1.47
2022-11-26T13:23:09.816Z,1.10
2022-11-26T13:25:51.367Z,1.40
2022-11-26T13:28:20.935Z,1.50
2022-11-26T13:31:18.322Z,1.83
2022-11-26T13:33:53.582Z,1.23
2022-11-26T13:36:43.116Z,1.40
2022-11-26T13:39:37.900Z,1.70
2022-11-26T13:42:32.330Z,1.43
2022-11-26T13:45:23.604Z,2.37
2022-11-26T13:47:54.178Z,3.23
2022-11-26T13:50:43.478Z,5.03
2022-11-26T13:53:26.543Z,2.10
2022-11-26T13:56:02.021Z,2.10
2022-11-26T13:58:30.363Z,2.30
2022-11-26T14:00:57.218Z,2.70
2022-11-26T14:03:47.020Z,3.00
2022-11-26T14:06:14.063Z,2.30
2022-11-26T14:08:48.696Z,1.70
2022-11-26T14:11:40.353Z,1.90
2022-11-26T14:14:30.242Z,1.47
2022-11-26T14:17:08.950Z,1.90
2022-11-26T14:19:42.379Z,2.20
2022-11-26T14:22:21.856Z,1.40
2022-11-26T14:24:51.257Z,1.27
2022-11-26T14:27:19.522Z,1.30
2022-11-26T14:29:46.731Z,1.03
2022-11-26T14:32:23.758Z,1.10
2022-11-26T14:34:54.867Z,1.37
2022-11-26T14:37:23.174Z,1.23
2022-11-26T14:39:59.891Z,1.67
2022-11-26T14:42:26.913Z,1.60
2022-11-26T14:45:20.684Z,1.50
2022-11-26T14:47:50.243Z,1.20
2022-11-26T14:50:18.935Z,1.83
2022-11-26T14:52:45.818Z,1.60
2022-11-26T14:55:15.488Z,1.20
2022-11-26T14:58:12.134Z,1.33
2022-11-26T15:00:38.889Z,2.40
2022-11-26T15:03:24.826Z,4.10
2022-11-26T15:05:51.618Z,2.30
2022-11-26T15:08:20.224Z,2.20
2022-11-26T15:10:46.923Z,1.63
2022-11-26T15:13:33.634Z,2.20
2022-11-26T15:16:02.082Z,1.90
2022-11-26T15:18:32.751Z,2.53
2022-11-26T15:21:00.068Z,1.70
2022-11-26T15:23:44.975Z,3.30
2022-11-26T15:26:15.584Z,3.23
2022-11-26T15:28:42.357Z,2.43
2022-11-26T15:31:09.295Z,1.53
2022-11-26T15:33:37.309Z,1.70
2022-11-26T15:36:05.411Z,1.67
2022-11-26T15:38:33.590Z,1.67
2022-11-26T15:41:13.362Z,1.90
2022-11-26T15:43:51.123Z,2.00
2022-11-26T15:46:23.573Z,2.07
2022-11-26T15:48:53.142Z,1.83
2022-11-26T15:51:36.006Z,1.63
2022-11-26T15:54:04.140Z,2.40
2022-11-26T15:56:35.968Z,1.80
2022-11-26T15:59:04.963Z,1.53
2022-11-26T16:01:34.096Z,2.40
2022-11-26T16:04:04.690Z,1.57
2022-11-26T16:06:36.017Z,1.87
2022-11-26T16:09:16.184Z,1.70
2022-11-26T16:11:56.840Z,1.67
2022-11-26T16:14:36.424Z,1.20
2022-11-26T16:17:14.221Z,2.20
2022-11-26T16:19:50.872Z,1.27
2022-11-26T16:22:18.244Z,1.47
2022-11-26T16:24:45.220Z,1.00
2022-11-26T16:27:18.227Z,1.00
2022-11-26T16:29:45.235Z,1.23
2022-11-26T16:32:12.939Z,1.90
2022-11-26T16:34:39.895Z,1.10
2022-11-26T16:37:18.858Z,3.50
2022-11-26T16:39:45.605Z,1.07
2022-11-26T16:42:17.363Z,1.70
2022-11-26T16:44:44.178Z,1.13
2022-11-26T16:47:19.248Z,2.57
2022-11-26T16:49:46.280Z,2.67
2022-11-26T16:52:14.459Z,5.67
2022-11-26T16:54:41.537Z,4.17
2022-11-26T16:57:16.660Z,3.73
2022-11-26T16:59:43.932Z,2.77
2022-11-26T17:02:18.181Z,3.30
2022-11-26T17:04:45.087Z,4.27
2022-11-26T17:07:19.952Z,5.80
2022-11-26T17:09:46.749Z,4.00
2022-11-26T17:12:17.715Z,3.63
2022-11-26T17:14:44.797Z,4.17
2022-11-26T17:17:23.604Z,3.63
2022-11-26T17:19:52.018Z,3.70
2022-11-26T17:22:18.842Z,4.27
2022-11-26T17:24:45.601Z,6.30
2022-11-26T17:27:16.482Z,4.73
2022-11-26T17:29:44.846Z,7.47
2022-11-26T17:32:12.727Z,6.13
2022-11-26T17:34:39.522Z,4.30
2022-11-26T17:37:06.362Z,5.80
2022-11-26T17:39:33.182Z,5.00
2022-11-26T17:41:59.970Z,3.57
2022-11-26T17:44:26.656Z,3.07
2022-11-26T17:47:15.668Z,2.83
2022-11-26T17:49:41.416Z,2.60
2022-11-26T17:52:08.337Z,2.80
2022-11-26T17:54:35.128Z,2.67
2022-11-26T17:57:02.199Z,2.07
2022-11-26T17:59:29.186Z,3.03
2022-11-26T18:01:56.258Z,2.60
2022-11-26T18:04:23.117Z,2.97
2022-11-26T18:07:04.687Z,2.93
2022-11-26T18:09:31.429Z,3.03
2022-11-26T18:11:58.197Z,4.27
2022-11-26T18:14:24.909Z,3.97
2022-11-26T18:16:51.782Z,2.63
2022-11-26T18:19:20.125Z,2.67
2022-11-26T18:21:47.029Z,2.93
2022-11-26T18:24:13.744Z,3.63
2022-11-26T18:26:40.431Z,2.80
2022-11-26T18:29:07.385Z,3.20
2022-11-26T18:31:39.074Z,3.50
2022-11-26T18:34:06.508Z,5.40
2022-11-26T18:36:33.252Z,4.70
2022-11-26T18:38:59.952Z,5.53
2022-11-26T18:41:26.711Z,4.27
2022-11-26T18:43:53.594Z,13.20
2022-11-26T18:46:20.336Z,19.87
2022-11-26T18:48:48.073Z,21.53
2022-11-26T18:51:15.851Z,25.50
2022-11-26T18:53:43.282Z,21.93
2022-11-26T18:56:15.004Z,24.00
2022-11-26T18:58:42.209Z,14.10
2022-11-26T19:01:29.881Z,15.10
2022-11-26T19:03:57.471Z,11.87
2022-11-26T19:06:26.070Z,10.30
2022-11-26T19:08:59.482Z,9.10
2022-11-26T19:11:27.658Z,7.03
2022-11-26T19:13:55.499Z,7.10
2022-11-26T19:16:22.776Z,4.57
2022-11-26T19:18:49.677Z,4.27
2022-11-26T19:21:27.168Z,8.27
2022-11-26T19:23:54.554Z,4.70
2022-11-26T19:26:21.340Z,3.90
2022-11-26T19:28:48.145Z,5.27
2022-11-26T19:31:16.976Z,3.93
2022-11-26T19:33:46.297Z,3.73
2022-11-26T19:36:14.285Z,3.83
2022-11-26T19:38:41.070Z,4.33
2022-11-26T19:41:07.820Z,3.90
2022-11-26T19:43:36.068Z,4.63
2022-11-26T19:46:03.633Z,4.43
2022-11-26T19:48:30.752Z,3.90
2022-11-26T19:50:57.556Z,6.03
2022-11-26T19:53:24.341Z,4.10
2022-11-26T19:56:01.574Z,3.43
2022-11-26T19:58:28.777Z,4.87
2022-11-26T20:00:55.556Z,4.00
2022-11-26T20:03:22.638Z,3.67
2022-11-26T20:05:49.454Z,3.17
2022-11-26T20:08:16.260Z,2.77
2022-11-26T20:10:48.434Z,4.03
2022-11-26T20:13:16.512Z,2.20
2022-11-26T20:15:47.411Z,2.40
2022-11-26T20:18:15.327Z,2.23
2022-11-26T20:20:42.104Z,2.20
2022-11-26T20:23:08.833Z,3.33
2022-11-26T20:25:36.282Z,2.33
2022-11-26T20:28:03.547Z,2.70
2022-11-26T20:30:30.807Z,2.70
2022-11-26T20:32:57.664Z,3.23
2022-11-26T20:35:24.500Z,2.50
2022-11-26T20:37:52.174Z,3.57
2022-11-26T20:40:19.052Z,5.03
2022-11-26T20:42:46.387Z,4.83
2022-11-26T20:45:13.642Z,6.17
2022-11-26T20:47:40.724Z,7.87
2022-11-26T20:50:08.180Z,10.53
2022-11-26T20:52:34.945Z,10.17
2022-11-26T20:55:01.668Z,9.43
2022-11-26T20:57:28.463Z,8.90
2022-11-26T20:59:55.186Z,7.03
2022-11-26T21:02:22.059Z,6.30
2022-11-26T21:04:49.087Z,5.70
2022-11-26T21:07:15.857Z,5.83
2022-11-26T21:09:42.648Z,5.60
2022-11-26T21:12:09.359Z,5.07
2022-11-26T21:14:36.136Z,4.60
2022-11-26T21:17:03.024Z,4.30
2022-11-26T21:19:29.855Z,4.23
2022-11-26T21:21:56.661Z,4.30
2022-11-26T21:24:23.592Z,4.23
2022-11-26T21:26:50.403Z,4.00
2022-11-26T21:29:17.193Z,4.30
2022-11-26T21:31:43.926Z,2.97
2022-11-26T21:34:11.255Z,3.20
2022-11-26T21:36:38.283Z,3.53
2022-11-26T21:39:05.098Z,3.43
2022-11-26T21:41:34.523Z,3.10
2022-11-26T21:44:04.244Z,3.10
2022-11-26T21:46:34.938Z,2.60
2022-11-26T21:49:04.905Z,3.13
2022-11-26T21:51:31.650Z,3.10
2022-11-26T21:53:58.500Z,2.83
2022-11-26T21:56:26.937Z,2.73
2022-11-26T21:58:56.887Z,3.40
2022-11-26T22:01:34.558Z,3.00
2022-11-26T22:04:03.788Z,2.93
2022-11-26T22:06:30.825Z,2.73
2022-11-26T22:08:57.780Z,3.33
2022-11-26T22:11:26.235Z,3.10
2022-11-26T22:13:53.091Z,3.70
2022-11-26T22:16:21.270Z,3.20
2022-11-26T22:18:49.409Z,3.60
2022-11-26T22:21:25.783Z,4.27
2022-11-26T22:23:52.846Z,4.20
2022-11-26T22:26:19.933Z,5.10
2022-11-26T22:28:47.022Z,3.63
2022-11-26T22:31:29.653Z,2.83
2022-11-26T22:33:58.628Z,3.13
2022-11-26T22:36:25.689Z,3.00
2022-11-26T22:38:52.514Z,5.27
2022-11-26T22:41:19.445Z,3.10
2022-11-26T22:43:46.203Z,3.30
2022-11-26T22:46:14.951Z,2.73
2022-11-26T22:48:42.033Z,3.60
2022-11-26T22:51:09.309Z,4.03
2022-11-26T22:53:36.441Z,3.07
2022-11-26T22:56:05.031Z,3.57
2022-11-26T22:58:32.754Z,3.07
2022-11-26T23:01:07.043Z,3.17
2022-11-26T23:03:35.543Z,3.00
2022-11-26T23:06:07.038Z,3.93
2022-11-26T23:08:33.872Z,3.47
2022-11-26T23:11:12.088Z,6.77
2022-11-26T23:13:40.956Z,3.97
2022-11-26T23:16:08.474Z,3.27
2022-11-26T23:18:36.413Z,4.67
2022-11-26T23:21:08.158Z,4.73
2022-11-26T23:23:35.695Z,4.47
2022-11-26T23:26:03.261Z,3.10
2022-11-26T23:28:31.365Z,3.53
2022-11-26T23:31:05.931Z,3.60
2022-11-26T23:33:33.296Z,5.40
2022-11-26T23:36:00.126Z,4.87
2022-11-26T23:38:26.885Z,4.73
2022-11-26T23:40:54.816Z,4.37
2022-11-26T23:43:21.927Z,5.40
2022-11-26T23:45:48.781Z,4.47
2022-11-26T23:48:15.911Z,3.97
2022-11-26T23:50:43.102Z,5.57
2022-11-26T23:53:09.961Z,5.57
2022-11-26T23:55:36.652Z,3.70
2022-11-26T23:58:03.460Z,4.97
